createdAt,value
2023-05-10T00:01:04.693Z,44.41
2023-05-10T00:03:35.198Z,44.56
2023-05-10T00:06:12.089Z,44.79
2023-05-10T00:08:48.474Z,44.68
2023-05-10T00:11:25.238Z,44.60
2023-05-10T00:14:01.675Z,44.66
2023-05-10T00:16:38.244Z,45.12
2023-05-10T00:19:14.972Z,45.01
2023-05-10T00:21:51.434Z,44.75
2023-05-10T00:24:28.104Z,44.99
2023-05-10T00:27:05.267Z,44.88
2023-05-10T00:29:35.407Z,45.28
2023-05-10T00:32:12.328Z,45.08
2023-05-10T00:34:49.221Z,44.96
2023-05-10T00:37:25.796Z,45.28
2023-05-10T00:40:02.368Z,44.83
2023-05-10T00:42:39.844Z,45.04
2023-05-10T00:45:16.640Z,44.99
2023-05-10T00:47:58.288Z,44.98
2023-05-10T00:50:35.595Z,44.71
2023-05-10T00:53:12.891Z,44.88
2023-05-10T00:55:49.553Z,44.63
2023-05-10T00:58:29.417Z,44.69
2023-05-10T01:01:07.304Z,44.64
2023-05-10T01:03:42.788Z,44.56
2023-05-10T01:06:14.938Z,44.72
2023-05-10T01:08:45.588Z,44.61
2023-05-10T01:11:22.476Z,44.61
2023-05-10T01:14:02.978Z,44.67
2023-05-10T01:16:42.856Z,44.72
2023-05-10T01:19:28.574Z,44.61
2023-05-10T01:22:23.146Z,44.47
2023-05-10T01:25:14.355Z,44.41
2023-05-10T01:28:36.240Z,44.36
2023-05-10T01:32:23.965Z,44.34
2023-05-10T01:35:41.595Z,44.28
2023-05-10T01:38:41.236Z,44.22
2023-05-10T01:41:30.427Z,44.28
2023-05-10T01:44:30.844Z,44.32
2023-05-10T01:47:16.864Z,44.22
2023-05-10T01:50:04.149Z,44.40
2023-05-10T01:52:57.001Z,44.45
2023-05-10T01:55:34.825Z,44.50
2023-05-10T01:58:17.799Z,44.55
2023-05-10T02:00:55.292Z,44.39
2023-05-10T02:03:32.628Z,44.54
2023-05-10T02:06:10.507Z,44.82
2023-05-10T02:08:47.265Z,44.82
2023-05-10T02:11:25.632Z,45.00
2023-05-10T02:14:00.349Z,44.86
2023-05-10T02:16:35.105Z,45.05
2023-05-10T02:19:13.014Z,45.05
2023-05-10T02:21:50.141Z,45.37
2023-05-10T02:24:27.681Z,45.42
2023-05-10T02:27:06.040Z,45.66
2023-05-10T02:29:38.620Z,45.93
2023-05-10T02:32:12.723Z,45.69
2023-05-10T02:34:55.356Z,45.91
2023-05-10T02:37:33.623Z,46.15
2023-05-10T02:40:12.691Z,45.99
2023-05-10T02:42:51.171Z,46.25
2023-05-10T02:45:31.557Z,46.25
2023-05-10T02:48:09.572Z,46.44
2023-05-10T02:50:52.962Z,46.86
2023-05-10T02:53:34.764Z,46.60
2023-05-10T02:56:21.089Z,46.87
2023-05-10T02:58:54.178Z,46.82
2023-05-10T03:01:31.795Z,46.87
2023-05-10T03:04:08.431Z,47.17
2023-05-10T03:06:45.903Z,47.11
2023-05-10T03:09:22.928Z,47.20
2023-05-10T03:12:37.326Z,47.19
2023-05-10T03:15:28.690Z,47.54
2023-05-10T03:18:17.536Z,47.45
2023-05-10T03:21:07.360Z,47.52
2023-05-10T03:24:07.673Z,47.49
2023-05-10T03:26:46.972Z,47.33
2023-05-10T03:29:25.142Z,47.53
2023-05-10T03:32:04.815Z,47.55
2023-05-10T03:34:46.403Z,47.50
2023-05-10T03:37:23.619Z,47.60
2023-05-10T03:40:00.677Z,47.56
2023-05-10T03:42:37.465Z,47.49
2023-05-10T03:45:09.014Z,47.74
2023-05-10T03:47:46.506Z,47.85
2023-05-10T03:50:16.991Z,47.69
2023-05-10T03:52:54.822Z,47.78
2023-05-10T03:55:37.079Z,47.71
2023-05-10T03:58:15.175Z,47.60
2023-05-10T04:00:51.919Z,47.70
2023-05-10T04:03:28.742Z,47.43
2023-05-10T04:06:10.368Z,47.37
2023-05-10T04:08:47.760Z,47.47
2023-05-10T04:11:25.938Z,47.38
2023-05-10T04:14:04.102Z,47.09
2023-05-10T04:16:40.470Z,47.06
2023-05-10T04:19:18.676Z,46.99
2023-05-10T04:21:55.141Z,46.98
2023-05-10T04:24:31.713Z,47.04
2023-05-10T04:27:08.650Z,46.86
2023-05-10T04:29:40.107Z,46.80
2023-05-10T04:32:17.499Z,46.77
2023-05-10T04:34:54.461Z,46.59
2023-05-10T04:37:31.414Z,46.42
2023-05-10T04:40:09.121Z,46.29
2023-05-10T04:42:46.258Z,46.26
2023-05-10T04:45:22.749Z,46.19
2023-05-10T04:47:59.542Z,45.97
2023-05-10T04:50:30.948Z,45.76
2023-05-10T04:53:03.438Z,45.61
2023-05-10T04:55:37.154Z,45.47
2023-05-10T04:58:14.154Z,45.42
2023-05-10T05:00:51.282Z,45.05
2023-05-10T05:03:29.106Z,44.48
2023-05-10T05:06:00.317Z,43.51
2023-05-10T05:08:37.826Z,43.00
2023-05-10T05:11:15.034Z,41.46
2023-05-10T05:13:52.092Z,40.09
2023-05-10T05:16:28.818Z,38.30
2023-05-10T05:18:59.310Z,35.91
2023-05-10T05:21:37.547Z,34.95
2023-05-10T05:24:16.065Z,33.86
2023-05-10T05:26:54.329Z,34.09
2023-05-10T05:29:32.869Z,33.72
2023-05-10T05:32:12.012Z,32.63
2023-05-10T05:34:51.025Z,32.14
2023-05-10T05:37:28.543Z,31.56
2023-05-10T05:40:07.604Z,30.90
2023-05-10T05:42:44.801Z,30.25
2023-05-10T05:45:22.521Z,30.34
2023-05-10T05:47:59.874Z,29.49
2023-05-10T05:50:38.552Z,29.00
2023-05-10T05:53:17.097Z,28.83
2023-05-10T05:56:02.396Z,29.03
2023-05-10T05:58:40.562Z,29.25
2023-05-10T06:01:18.769Z,27.55
2023-05-10T06:03:56.263Z,27.97
2023-05-10T06:06:34.938Z,27.45
2023-05-10T06:09:13.226Z,27.31
2023-05-10T06:11:51.314Z,27.26
2023-05-10T06:14:32.179Z,27.08
2023-05-10T06:17:07.301Z,26.71
2023-05-10T06:19:39.823Z,26.68
2023-05-10T06:22:18.153Z,26.88
2023-05-10T06:24:56.953Z,26.25
2023-05-10T06:27:35.207Z,26.21
2023-05-10T06:30:16.098Z,26.19
2023-05-10T06:32:46.699Z,26.02
2023-05-10T06:35:24.400Z,25.83
2023-05-10T06:38:02.263Z,26.63
2023-05-10T06:40:43.790Z,26.12
2023-05-10T06:43:21.848Z,26.09
2023-05-10T06:45:59.536Z,26.01
2023-05-10T06:48:37.070Z,25.64
2023-05-10T06:51:15.059Z,25.13
2023-05-10T06:53:50.002Z,24.97
2023-05-10T06:56:23.413Z,24.95
2023-05-10T06:59:00.835Z,25.36
2023-05-10T07:01:39.905Z,25.10
2023-05-10T07:04:11.080Z,24.25
2023-05-10T07:06:42.515Z,24.84
2023-05-10T07:09:20.873Z,24.67
2023-05-10T07:11:59.169Z,24.47
2023-05-10T07:14:37.144Z,25.02
2023-05-10T07:17:11.342Z,24.18
2023-05-10T07:19:42.198Z,23.91
2023-05-10T07:22:20.287Z,23.88
2023-05-10T07:24:58.770Z,22.42
2023-05-10T07:27:30.568Z,22.37
2023-05-10T07:30:10.353Z,22.52
2023-05-10T07:32:44.655Z,23.33
2023-05-10T07:35:22.208Z,22.91
2023-05-10T07:37:56.638Z,22.44
2023-05-10T07:40:35.122Z,22.65
2023-05-10T07:43:07.514Z,22.42
2023-05-10T07:45:43.273Z,21.96
2023-05-10T07:48:22.961Z,21.88
2023-05-10T07:50:58.971Z,21.14
2023-05-10T07:53:33.894Z,21.32
2023-05-10T07:56:33.110Z,21.22
2023-05-10T07:59:07.572Z,21.20
2023-05-10T08:01:39.157Z,20.97
2023-05-10T08:04:18.383Z,21.05
2023-05-10T08:06:50.595Z,20.25
2023-05-10T08:09:28.954Z,19.84
2023-05-10T08:12:03.006Z,19.78
2023-05-10T08:14:42.024Z,19.75
2023-05-10T08:17:20.495Z,19.26
2023-05-10T08:19:59.672Z,19.28
2023-05-10T08:22:32.261Z,19.42
2023-05-10T08:25:04.524Z,19.37
2023-05-10T08:27:42.656Z,19.84
2023-05-10T08:30:20.054Z,20.22
2023-05-10T08:32:58.399Z,20.18
2023-05-10T08:35:29.678Z,19.66
2023-05-10T08:38:08.782Z,19.64
2023-05-10T08:40:44.716Z,19.47
2023-05-10T08:43:23.159Z,19.60
2023-05-10T08:46:04.402Z,19.57
2023-05-10T08:48:44.086Z,19.61
2023-05-10T08:51:28.646Z,19.80
2023-05-10T08:54:08.787Z,19.76
2023-05-10T08:56:49.232Z,19.48
2023-05-10T08:59:28.030Z,19.25
2023-05-10T09:02:08.227Z,19.66
2023-05-10T09:04:47.447Z,19.65
2023-05-10T09:07:25.821Z,19.80
2023-05-10T09:10:05.033Z,19.79
2023-05-10T09:12:46.321Z,20.03
2023-05-10T09:15:21.550Z,19.84
2023-05-10T09:18:02.945Z,20.01
2023-05-10T09:20:40.809Z,19.69
2023-05-10T09:23:18.980Z,20.30
2023-05-10T09:26:08.837Z,20.56
2023-05-10T09:29:04.598Z,20.36
2023-05-10T09:31:56.279Z,20.96
2023-05-10T09:34:43.708Z,20.40
2023-05-10T09:37:32.158Z,20.61
2023-05-10T09:40:17.175Z,20.36
2023-05-10T09:43:00.227Z,20.25
2023-05-10T09:45:39.486Z,20.75
2023-05-10T09:48:18.100Z,20.36
2023-05-10T09:51:03.691Z,20.60
2023-05-10T09:53:42.111Z,20.57
2023-05-10T09:56:14.909Z,20.21
2023-05-10T09:59:07.212Z,20.39
2023-05-10T10:01:52.684Z,20.45
2023-05-10T10:04:27.471Z,20.89
2023-05-10T10:07:07.281Z,21.47
2023-05-10T10:09:46.359Z,21.32
2023-05-10T10:12:26.311Z,21.31
2023-05-10T10:15:06.426Z,21.31
2023-05-10T10:17:43.946Z,21.99
2023-05-10T10:20:17.822Z,21.20
2023-05-10T10:22:57.418Z,21.63
2023-05-10T10:25:35.715Z,21.49
2023-05-10T10:28:27.561Z,20.98
2023-05-10T10:31:20.396Z,20.79
2023-05-10T10:34:11.105Z,20.58
2023-05-10T10:36:57.214Z,20.45
2023-05-10T10:39:40.148Z,20.25
2023-05-10T10:42:16.401Z,20.42
2023-05-10T10:45:15.635Z,20.59
2023-05-10T10:47:48.190Z,21.09
2023-05-10T10:50:27.686Z,21.16
2023-05-10T10:53:14.643Z,21.36
2023-05-10T10:55:49.956Z,21.70
2023-05-10T10:58:36.308Z,21.47
2023-05-10T11:01:19.794Z,21.57
2023-05-10T11:04:22.921Z,21.94
2023-05-10T11:07:22.052Z,21.80
2023-05-10T11:10:06.890Z,21.67
2023-05-10T11:13:11.464Z,21.59
2023-05-10T11:15:52.301Z,22.07
2023-05-10T11:18:37.031Z,22.28
2023-05-10T11:21:12.062Z,22.29
2023-05-10T11:24:00.122Z,22.45
2023-05-10T11:26:45.543Z,22.96
2023-05-10T11:29:31.672Z,23.10
2023-05-10T11:32:11.706Z,23.56
2023-05-10T11:34:52.154Z,23.90
2023-05-10T11:37:38.613Z,23.83
2023-05-10T11:40:17.070Z,23.38
2023-05-10T11:42:55.786Z,23.36
2023-05-10T11:45:37.315Z,23.24
2023-05-10T11:48:18.892Z,22.93
2023-05-10T11:50:58.779Z,22.74
2023-05-10T11:53:40.939Z,23.15
2023-05-10T11:56:13.572Z,23.28
2023-05-10T11:58:55.562Z,23.40
2023-05-10T12:01:35.162Z,23.24
2023-05-10T12:04:13.682Z,23.25
2023-05-10T12:06:51.305Z,23.55
2023-05-10T12:09:42.720Z,23.03
2023-05-10T12:12:25.711Z,23.02
2023-05-10T12:15:04.933Z,22.60
2023-05-10T12:17:46.708Z,23.35
2023-05-10T12:20:30.083Z,23.36
2023-05-10T12:23:11.251Z,23.69
2023-05-10T12:25:49.959Z,23.84
2023-05-10T12:28:31.380Z,23.84
2023-05-10T12:31:06.211Z,23.65
2023-05-10T12:33:48.900Z,24.00
2023-05-10T12:36:30.188Z,23.54
2023-05-10T12:39:11.403Z,23.04
2023-05-10T12:41:49.488Z,23.31
2023-05-10T12:44:26.146Z,22.97
2023-05-10T12:46:58.318Z,22.56
2023-05-10T12:49:38.059Z,22.66
2023-05-10T12:52:15.784Z,23.53
2023-05-10T12:54:54.427Z,23.71
2023-05-10T12:57:32.335Z,23.61
2023-05-10T13:00:10.542Z,23.85
2023-05-10T13:02:49.114Z,24.07
2023-05-10T13:05:28.290Z,24.48
2023-05-10T13:08:07.750Z,24.42
2023-05-10T13:10:46.759Z,24.41
2023-05-10T13:13:25.332Z,24.25
2023-05-10T13:16:02.389Z,24.58
2023-05-10T13:18:38.763Z,24.78
2023-05-10T13:21:13.522Z,24.94
2023-05-10T13:23:51.713Z,24.21
2023-05-10T13:26:24.010Z,24.90
2023-05-10T13:29:04.083Z,24.53
2023-05-10T13:31:43.145Z,24.71
2023-05-10T13:34:22.063Z,24.54
2023-05-10T13:37:00.534Z,24.57
2023-05-10T13:39:39.433Z,24.78
2023-05-10T13:42:18.821Z,25.01
2023-05-10T13:44:53.576Z,24.94
2023-05-10T13:47:31.570Z,24.55
2023-05-10T13:50:10.817Z,24.80
2023-05-10T13:52:49.024Z,24.60
2023-05-10T13:55:27.158Z,24.53
2023-05-10T13:58:06.092Z,24.03
2023-05-10T14:00:49.340Z,24.20
2023-05-10T14:03:28.708Z,24.56
2023-05-10T14:06:09.145Z,24.45
2023-05-10T14:08:43.552Z,24.31
2023-05-10T14:11:16.315Z,23.99
2023-05-10T14:13:55.614Z,24.37
2023-05-10T14:16:34.652Z,24.47
2023-05-10T14:19:14.519Z,24.10
2023-05-10T14:21:54.018Z,23.81
2023-05-10T14:24:32.845Z,23.82
2023-05-10T14:27:13.238Z,24.04
2023-05-10T14:29:49.372Z,23.50
2023-05-10T14:32:28.688Z,23.74
2023-05-10T14:35:08.263Z,23.78
2023-05-10T14:37:47.960Z,23.86
2023-05-10T14:40:26.472Z,23.99
2023-05-10T14:42:58.062Z,24.02
2023-05-10T14:45:36.150Z,23.99
2023-05-10T14:48:19.664Z,23.90
2023-05-10T14:50:58.221Z,24.29
2023-05-10T14:53:38.239Z,24.46
2023-05-10T14:56:17.252Z,24.42
2023-05-10T14:58:56.115Z,24.41
2023-05-10T15:01:36.588Z,24.66
2023-05-10T15:04:20.563Z,24.75
2023-05-10T15:07:00.858Z,24.70
2023-05-10T15:09:39.177Z,24.74
2023-05-10T15:12:18.845Z,24.57
2023-05-10T15:14:54.894Z,24.10
2023-05-10T15:17:25.850Z,24.15
2023-05-10T15:19:56.415Z,23.68
2023-05-10T15:22:34.576Z,23.88
2023-05-10T15:25:13.593Z,24.28
2023-05-10T15:27:53.102Z,23.89
2023-05-10T15:30:31.644Z,23.90
2023-05-10T15:33:10.720Z,23.76
2023-05-10T15:35:49.646Z,24.01
2023-05-10T15:38:28.305Z,24.20
2023-05-10T15:41:07.196Z,24.41
2023-05-10T15:43:45.230Z,24.33
2023-05-10T15:46:23.932Z,24.39
2023-05-10T15:49:02.778Z,24.05
2023-05-10T15:51:41.261Z,23.90
2023-05-10T15:54:19.850Z,23.81
2023-05-10T15:56:58.090Z,23.96
2023-05-10T15:59:36.703Z,24.10
2023-05-10T16:02:18.454Z,23.81
2023-05-10T16:04:50.452Z,23.63
2023-05-10T16:07:21.268Z,23.90
2023-05-10T16:09:57.504Z,23.86
2023-05-10T16:12:36.676Z,23.99
2023-05-10T16:15:15.262Z,23.99
2023-05-10T16:17:53.220Z,23.93
2023-05-10T16:20:31.620Z,23.82
2023-05-10T16:23:15.721Z,23.64
2023-05-10T16:25:54.777Z,23.59
2023-05-10T16:28:33.946Z,23.26
2023-05-10T16:31:12.975Z,23.32
2023-05-10T16:33:53.293Z,23.73
2023-05-10T16:36:33.956Z,23.69
2023-05-10T16:39:13.188Z,23.74
2023-05-10T16:41:52.926Z,23.86
2023-05-10T16:44:26.696Z,24.08
2023-05-10T16:47:06.240Z,24.28
2023-05-10T16:49:46.761Z,24.29
2023-05-10T16:52:26.916Z,24.52
2023-05-10T16:55:11.139Z,24.60
2023-05-10T16:57:50.155Z,24.79
2023-05-10T17:00:33.062Z,24.81
2023-05-10T17:03:12.158Z,24.88
2023-05-10T17:05:51.325Z,24.97
2023-05-10T17:08:29.624Z,25.10
2023-05-10T17:11:12.986Z,25.15
2023-05-10T17:13:52.972Z,25.13
2023-05-10T17:16:32.300Z,25.29
2023-05-10T17:19:11.691Z,25.32
2023-05-10T17:21:50.369Z,25.26
2023-05-10T17:24:27.296Z,25.45
2023-05-10T17:27:05.605Z,25.38
2023-05-10T17:29:43.429Z,25.54
2023-05-10T17:32:21.130Z,25.63
2023-05-10T17:34:59.732Z,25.71
2023-05-10T17:37:37.994Z,25.84
2023-05-10T17:40:17.636Z,25.62
2023-05-10T17:42:52.480Z,25.98
2023-05-10T17:45:24.437Z,26.08
2023-05-10T17:48:00.793Z,26.04
2023-05-10T17:50:38.366Z,26.14
2023-05-10T17:53:15.762Z,26.42
2023-05-10T17:55:58.316Z,26.65
2023-05-10T17:58:38.611Z,26.48
2023-05-10T18:01:17.348Z,26.65
2023-05-10T18:03:56.461Z,27.00
2023-05-10T18:06:37.945Z,27.50
2023-05-10T18:09:16.650Z,27.27
2023-05-10T18:11:53.961Z,27.33
2023-05-10T18:14:40.698Z,27.30
2023-05-10T18:17:18.774Z,27.25
2023-05-10T18:19:56.124Z,27.57
2023-05-10T18:22:34.112Z,27.73
2023-05-10T18:25:13.574Z,27.56
2023-05-10T18:27:50.683Z,27.92
2023-05-10T18:30:28.203Z,28.29
2023-05-10T18:33:05.118Z,27.80
2023-05-10T18:35:42.078Z,28.08
2023-05-10T18:38:19.918Z,28.31
2023-05-10T18:40:58.361Z,28.69
2023-05-10T18:43:37.052Z,28.36
2023-05-10T18:46:09.246Z,29.08
2023-05-10T18:48:42.913Z,29.05
2023-05-10T18:51:20.859Z,29.18
2023-05-10T18:53:57.459Z,29.13
2023-05-10T18:56:34.979Z,29.25
2023-05-10T18:59:16.157Z,29.35
2023-05-10T19:01:54.933Z,29.27
2023-05-10T19:04:32.856Z,29.62
2023-05-10T19:07:08.712Z,29.49
2023-05-10T19:09:46.182Z,30.02
2023-05-10T19:12:24.117Z,29.69
2023-05-10T19:15:02.577Z,30.36
2023-05-10T19:17:36.078Z,30.54
2023-05-10T19:20:14.945Z,30.08
2023-05-10T19:25:34.135Z,30.58
2023-05-10T19:28:04.693Z,30.52
2023-05-10T19:30:42.556Z,30.71
2023-05-10T19:33:22.715Z,31.02
2023-05-10T19:36:00.310Z,31.00
2023-05-10T19:38:30.994Z,31.11
2023-05-10T19:41:09.164Z,30.90
2023-05-10T19:43:45.751Z,31.26
2023-05-10T19:46:23.281Z,31.15
2023-05-10T19:49:00.727Z,31.26
2023-05-10T19:51:38.411Z,31.28
2023-05-10T19:54:12.738Z,31.72
2023-05-10T19:56:44.917Z,31.62
2023-05-10T19:59:22.624Z,31.73
2023-05-10T20:01:59.869Z,31.93
2023-05-10T20:04:37.145Z,31.81
2023-05-10T20:07:14.489Z,31.93
2023-05-10T20:09:52.084Z,32.03
2023-05-10T20:12:29.651Z,32.12
2023-05-10T20:15:08.413Z,32.23
2023-05-10T20:17:46.783Z,32.44
2023-05-10T20:20:25.142Z,32.83
2023-05-10T20:23:04.768Z,33.00
2023-05-10T20:25:42.114Z,32.84
2023-05-10T20:28:25.727Z,33.08
2023-05-10T20:31:03.754Z,33.38
2023-05-10T20:33:41.224Z,33.54
2023-05-10T20:36:15.731Z,33.48
2023-05-10T20:38:48.311Z,33.76
2023-05-10T20:41:18.615Z,33.89
2023-05-10T20:43:56.405Z,33.86
2023-05-10T20:46:33.221Z,33.92
2023-05-10T20:49:12.689Z,34.13
2023-05-10T20:51:50.083Z,34.14
2023-05-10T20:54:27.326Z,34.01
2023-05-10T20:57:04.595Z,34.33
2023-05-10T20:59:41.688Z,34.66
2023-05-10T21:02:18.869Z,34.68
2023-05-10T21:04:49.454Z,34.91
2023-05-10T21:07:26.921Z,35.03
2023-05-10T21:10:04.276Z,35.12
2023-05-10T21:12:41.447Z,35.37
2023-05-10T21:15:12.178Z,35.02
2023-05-10T21:17:49.829Z,35.35
2023-05-10T21:20:27.403Z,35.73
2023-05-10T21:23:04.679Z,35.83
2023-05-10T21:25:44.348Z,36.45
2023-05-10T21:28:21.089Z,35.97
2023-05-10T21:30:57.704Z,36.38
2023-05-10T21:33:28.550Z,36.03
2023-05-10T21:36:05.902Z,36.50
2023-05-10T21:38:38.178Z,36.61
2023-05-10T21:41:15.033Z,36.60
2023-05-10T21:43:51.837Z,36.84
2023-05-10T21:46:29.096Z,37.14
2023-05-10T21:49:06.645Z,37.37
2023-05-10T21:51:43.376Z,37.26
2023-05-10T21:54:20.411Z,37.89
2023-05-10T21:56:50.650Z,37.76
2023-05-10T21:59:28.422Z,37.77
2023-05-10T22:02:05.783Z,37.73
2023-05-10T22:04:42.993Z,37.93
2023-05-10T22:07:19.989Z,38.04
2023-05-10T22:09:57.068Z,38.26
2023-05-10T22:12:27.491Z,38.38
2023-05-10T22:15:10.478Z,37.91
2023-05-10T22:17:49.587Z,38.50
2023-05-10T22:20:27.061Z,38.58
2023-05-10T22:23:04.101Z,38.13
2023-05-10T22:25:41.119Z,38.45
2023-05-10T22:28:11.238Z,38.83
2023-05-10T22:30:51.974Z,38.39
2023-05-10T22:33:27.097Z,39.16
2023-05-10T22:36:03.345Z,38.80
2023-05-10T22:38:40.283Z,38.93
2023-05-10T22:41:16.603Z,38.97
2023-05-10T22:43:52.882Z,38.84
2023-05-10T22:46:29.918Z,39.07
2023-05-10T22:49:07.578Z,38.95
2023-05-10T22:51:44.162Z,39.22
2023-05-10T22:54:21.710Z,39.21
2023-05-10T22:56:54.984Z,39.48
2023-05-10T22:59:29.232Z,39.48
2023-05-10T23:02:05.816Z,39.35
2023-05-10T23:04:42.402Z,39.61
2023-05-10T23:07:20.168Z,39.28
2023-05-10T23:09:51.289Z,39.24
2023-05-10T23:12:27.388Z,39.61
2023-05-10T23:15:03.579Z,39.34
2023-05-10T23:17:40.495Z,39.68
2023-05-10T23:20:11.985Z,39.73
2023-05-10T23:22:48.045Z,39.57
2023-05-10T23:25:24.111Z,39.88
2023-05-10T23:28:00.060Z,39.83
2023-05-10T23:30:36.024Z,39.81
2023-05-10T23:33:11.167Z,40.22
2023-05-10T23:35:41.395Z,39.93
2023-05-10T23:38:11.985Z,40.04
2023-05-10T23:40:50.134Z,40.40
2023-05-10T23:43:25.946Z,40.31
2023-05-10T23:46:02.154Z,40.39
2023-05-10T23:48:38.408Z,40.30
2023-05-10T23:51:14.321Z,40.24
2023-05-10T23:53:50.619Z,40.22
2023-05-10T23:56:27.083Z,40.65
2023-05-10T23:59:03.265Z,40.21
